Time;durP1;ratioP1;P1;durP2;ratioP2;P2;SDS_P1;SDS_P2;PMS_P1;PMS_P2;Temp;Humidity;BMP_temperature;BMP_pressure;BME280_temperature;BME280_humidity;BME280_pressure;Samples;Min_cycle;Max_cycle;Signal;HPM_P1;HPM_P2
2022/05/21 00:01:55;;;;;;;12.40;9.18;;;15.30;88.90;;;;;;5066882;28;20056;-68
2022/05/21 00:04:23;;;;;;;12.95;9.27;;;15.30;89.50;;;;;;5055059;28;20057;-68
2022/05/21 00:06:57;;;;;;;16.52;9.48;;;15.30;89.60;;;;;;5056791;28;20025;-68
2022/05/21 00:09:23;;;;;;;;;;;15.30;89.50;;;;;;5050565;28;20110;-68
2022/05/21 00:11:49;;;;;;;11.98;9.02;;;15.30;89.50;;;;;;5055746;28;19955;-68
2022/05/21 00:14:18;;;;;;;12.02;8.40;;;15.30;89.80;;;;;;5052087;28;20067;-69
2022/05/21 00:16:43;;;;;;;13.98;9.13;;;15.20;90.30;;;;;;5055472;28;20474;-68
2022/05/21 00:19:09;;;;;;;14.73;9.00;;;15.20;90.10;;;;;;5052947;28;20168;-68
2022/05/21 00:21:34;;;;;;;13.60;8.68;;;15.10;89.70;;;;;;5054337;28;20025;-68
2022/05/21 00:24:00;;;;;;;12.63;8.25;;;15.00;89.60;;;;;;5036772;28;20303;-68
2022/05/21 00:26:28;;;;;;;13.20;9.27;;;15.00;90.10;;;;;;5055524;28;20029;-68
2022/05/21 00:28:57;;;;;;;14.60;8.90;;;15.00;89.60;;;;;;5053562;28;20036;-68
2022/05/21 00:31:26;;;;;;;12.45;8.68;;;14.90;89.60;;;;;;5055341;28;20036;-68
2022/05/21 00:33:51;;;;;;;15.52;9.23;;;15.00;89.40;;;;;;5036567;28;20040;-68
2022/05/21 00:36:18;;;;;;;12.23;8.40;;;15.00;89.90;;;;;;5054382;28;20033;-68
2022/05/21 00:38:45;;;;;;;12.80;8.60;;;15.10;89.90;;;;;;5053987;28;20117;-68
2022/05/21 00:41:16;;;;;;;12.55;9.45;;;15.10;90.40;;;;;;5055384;28;20370;-68
2022/05/21 00:43:44;;;;;;;13.85;7.95;;;15.00;90.70;;;;;;5054675;28;20040;-68
2022/05/21 00:46:14;;;;;;;11.45;7.60;;;15.00;90.90;;;;;;5039940;28;20316;-68
2022/05/21 00:48:51;;;;;;;14.32;8.82;;;14.90;91.10;;;;;;5059300;28;20036;-68
2022/05/21 00:51:21;;;;;;;12.80;7.70;;;14.90;91.30;;;;;;5040148;28;20039;-68
2022/05/21 00:53:49;;;;;;;12.98;7.85;;;14.80;91.70;;;;;;5041407;28;20465;-68
2022/05/21 00:56:15;;;;;;;10.73;6.75;;;14.70;91.60;;;;;;5065333;28;20452;-68
2022/05/21 01:01:36;;;;;;;14.35;7.20;;;14.60;93.10;;;;;;5077792;28;20119;-70
2022/05/21 01:04:02;;;;;;;10.23;6.85;;;14.50;92.90;;;;;;5070192;28;20036;-69
2022/05/21 01:06:31;;;;;;;10.70;6.68;;;14.40;92.80;;;;;;5058700;28;20033;-69
2022/05/21 01:08:56;;;;;;;8.63;6.15;;;14.30;92.30;;;;;;5065472;28;20070;-69
2022/05/21 01:11:22;;;;;;;9.70;6.47;;;14.20;92.40;;;;;;5065045;28;20028;-70
2022/05/21 01:13:52;;;;;;;11.43;6.40;;;14.20;92.20;;;;;;5055809;28;20373;-68
2022/05/21 01:16:25;;;;;;;9.15;5.60;;;14.10;92.00;;;;;;5043163;28;20414;-69
2022/05/21 01:18:53;;;;;;;8.70;6.38;;;14.10;92.10;;;;;;5064497;28;20048;-69
2022/05/21 01:21:18;;;;;;;7.78;5.78;;;14.00;93.00;;;;;;5044992;28;20028;-68
2022/05/21 01:23:44;;;;;;;9.52;5.72;;;14.00;93.40;;;;;;5065317;28;20427;-68
2022/05/21 01:26:19;;;;;;;11.10;5.75;;;14.00;93.70;;;;;;5061462;28;20028;-68
2022/05/21 01:28:49;;;;;;;11.35;5.55;;;13.90;93.30;;;;;;5061056;28;20589;-68
2022/05/21 01:31:14;;;;;;;12.38;6.20;;;13.80;93.00;;;;;;5072789;28;20051;-68
2022/05/21 01:33:45;;;;;;;9.40;6.22;;;13.90;93.50;;;;;;5063189;28;20028;-68
2022/05/21 01:36:14;;;;;;;9.93;5.55;;;13.90;93.20;;;;;;5055799;28;20426;-68
2022/05/21 01:38:40;;;;;;;10.75;5.82;;;13.80;93.30;;;;;;5063888;28;20107;-68
2022/05/21 01:41:09;;;;;;;12.18;7.22;;;13.90;94.00;;;;;;5061667;28;20429;-68
2022/05/21 01:46:21;;;;;;;11.20;5.85;;;13.90;94.70;;;;;;5066520;28;20032;-68
2022/05/21 01:48:47;;;;;;;9.75;5.53;;;13.80;94.60;;;;;;5058775;28;20025;-68
2022/05/21 01:51:13;;;;;;;8.43;5.88;;;13.70;94.50;;;;;;5066031;28;20471;-68
2022/05/21 01:53:40;;;;;;;10.02;6.30;;;13.70;94.50;;;;;;5067089;28;20028;-68
2022/05/21 01:56:08;;;;;;;9.77;6.00;;;13.70;94.50;;;;;;5059891;28;20108;-68
2022/05/21 01:58:34;;;;;;;10.07;6.45;;;13.70;94.40;;;;;;5053125;28;20477;-68
2022/05/21 02:01:00;;;;;;;11.00;5.78;;;13.60;94.40;;;;;;5058084;28;20076;-68
2022/05/21 02:03:26;;;;;;;11.55;6.05;;;13.60;94.00;;;;;;5056942;28;20041;-68
2022/05/21 02:05:53;;;;;;;8.95;5.20;;;13.50;93.70;;;;;;5054995;28;20033;-68
2022/05/21 02:08:22;;;;;;;8.95;6.07;;;13.50;94.20;;;;;;5047090;28;20418;-68
2022/05/21 02:10:51;;;;;;;14.15;6.15;;;13.50;94.30;;;;;;5056772;28;20115;-68
2022/05/21 02:13:24;;;;;;;10.68;6.15;;;13.40;93.80;;;;;;5055513;28;20029;-68
2022/05/21 02:15:50;;;;;;;8.82;6.43;;;13.40;93.90;;;;;;5056199;28;20330;-68
2022/05/21 02:18:16;;;;;;;11.00;6.03;;;13.40;93.90;;;;;;5056304;28;20025;-68
2022/05/21 02:20:42;;;;;;;9.85;6.32;;;13.40;94.20;;;;;;5039862;28;20029;-68
2022/05/21 02:23:10;;;;;;;8.48;6.13;;;13.30;94.30;;;;;;5054061;28;20017;-68
2022/05/21 02:25:36;;;;;;;9.55;5.57;;;13.30;94.10;;;;;;5053935;28;20024;-68
2022/05/21 02:28:03;;;;;;;8.25;5.75;;;13.30;94.40;;;;;;5055488;28;20313;-68
2022/05/21 02:30:28;;;;;;;9.68;5.68;;;13.30;94.60;;;;;;5056385;28;20032;-68
2022/05/21 02:32:57;;;;;;;7.93;5.60;;;13.20;94.30;;;;;;5054844;28;20094;-68
2022/05/21 02:35:25;;;;;;;8.70;5.63;;;13.10;94.00;;;;;;5055488;28;20064;-68
2022/05/21 02:40:36;;;;;;;;;;;12.90;93.50;;;;;;5055180;28;20036;-67
2022/05/21 02:43:05;;;;;;;7.68;5.65;;;12.90;92.80;;;;;;5053338;28;20298;-68
2022/05/21 02:45:31;;;;;;;9.02;5.90;;;12.80;93.00;;;;;;5038312;28;20045;-68
2022/05/21 02:48:08;;;;;;;9.35;5.95;;;12.70;92.80;;;;;;5055943;28;20029;-68
2022/05/21 02:50:36;;;;;;;9.10;6.65;;;12.70;92.00;;;;;;5060701;28;20036;-68
2022/05/21 02:53:03;;;;;;;10.23;6.30;;;12.60;92.00;;;;;;5059519;28;20025;-68
2022/05/21 02:55:29;;;;;;;11.95;6.45;;;12.50;91.90;;;;;;5044447;28;20036;-68
2022/05/21 02:57:56;;;;;;;9.88;6.47;;;12.50;91.50;;;;;;5064338;28;20028;-68
2022/05/21 03:00:25;;;;;;;8.73;6.30;;;12.50;91.10;;;;;;5055184;28;20284;-68
2022/05/21 03:02:50;;;;;;;9.73;6.72;;;12.50;91.20;;;;;;5054919;28;20045;-68
2022/05/21 03:05:19;;;;;;;9.85;6.85;;;12.50;91.10;;;;;;5036661;28;20230;-68
2022/05/21 03:07:47;;;;;;;11.55;6.28;;;12.50;91.50;;;;;;5053647;28;20024;-68
2022/05/21 03:10:23;;;;;;;9.32;6.20;;;12.50;91.20;;;;;;5054953;28;20101;-68
2022/05/21 03:12:58;;;;;;;10.43;6.38;;;12.50;91.50;;;;;;5063346;28;20024;-68
2022/05/21 03:15:33;;;;;;;10.80;7.38;;;12.50;91.90;;;;;;5057901;28;20436;-68
2022/05/21 03:18:13;;;;;;;12.07;6.68;;;12.40;91.30;;;;;;5068917;28;20025;-68
2022/05/21 03:20:39;;;;;;;9.93;6.78;;;12.30;91.20;;;;;;5056185;28;20052;-68
2022/05/21 03:23:09;;;;;;;11.43;7.70;;;12.20;90.60;;;;;;5045177;28;20021;-68
2022/05/21 03:25:35;;;;;;;12.48;7.35;;;12.20;90.40;;;;;;5067437;28;20048;-68
2022/05/21 03:28:03;;;;;;;12.52;7.63;;;12.10;90.10;;;;;;5067663;28;20017;-68
2022/05/21 03:30:33;;;;;;;10.90;6.43;;;12.00;91.00;;;;;;5065291;28;20053;-68
2022/05/21 03:32:59;;;;;;;15.70;7.32;;;11.80;90.50;;;;;;5061673;28;20054;-68
2022/05/21 03:35:29;;;;;;;10.20;6.10;;;11.60;90.60;;;;;;5053240;28;20112;-68
2022/05/21 03:37:55;;;;;;;11.18;6.93;;;11.40;90.10;;;;;;5054711;28;20073;-67
2022/05/21 03:40:24;;;;;;;9.80;6.28;;;11.40;89.40;;;;;;5066726;28;20030;-68
2022/05/21 03:42:52;;;;;;;10.27;7.63;;;11.30;89.40;;;;;;5059566;28;20016;-67
2022/05/21 03:45:18;;;;;;;11.00;7.68;;;11.30;87.70;;;;;;5061085;28;20032;-68
2022/05/21 03:47:47;;;;;;;9.73;6.20;;;11.40;87.80;;;;;;5056781;28;20024;-67
2022/05/21 03:50:16;;;;;;;10.30;6.75;;;11.40;87.90;;;;;;5058419;28;20020;-67
2022/05/21 03:52:45;;;;;;;9.38;6.72;;;11.50;87.10;;;;;;5059723;28;20398;-69
2022/05/21 03:55:10;;;;;;;8.25;6.70;;;11.50;88.10;;;;;;5055960;28;20021;-70
2022/05/21 03:57:39;;;;;;;9.77;6.65;;;11.40;88.40;;;;;;5061853;28;20047;-69
2022/05/21 04:00:10;;;;;;;11.23;6.85;;;11.20;88.30;;;;;;5058792;28;20031;-69
2022/05/21 04:02:38;;;;;;;11.65;7.72;;;11.20;87.80;;;;;;5030746;28;20056;-69
2022/05/21 04:05:08;;;;;;;12.05;8.10;;;11.10;88.10;;;;;;5053757;28;20025;-69
2022/05/21 04:07:34;;;;;;;11.13;7.55;;;11.00;87.70;;;;;;5059140;28;20033;-68
2022/05/21 04:10:04;;;;;;;11.35;7.32;;;10.90;87.50;;;;;;5069978;28;20408;-69
2022/05/21 04:12:32;;;;;;;10.68;7.40;;;10.90;87.20;;;;;;5057169;28;20043;-68
2022/05/21 04:15:03;;;;;;;12.07;7.35;;;10.90;86.10;;;;;;5055852;28;20025;-68
2022/05/21 04:17:32;;;;;;;12.63;6.38;;;11.00;86.10;;;;;;5062776;28;20071;-69
2022/05/21 04:19:58;;;;;;;8.73;6.57;;;11.00;85.00;;;;;;5060923;28;20056;-68
2022/05/21 04:22:23;;;;;;;9.60;6.93;;;11.20;86.20;;;;;;5057869;28;20049;-68
2022/05/21 04:24:49;;;;;;;11.25;5.78;;;11.40;90.30;;;;;;5043382;28;20031;-68
2022/05/21 04:27:20;;;;;;;8.52;6.45;;;11.60;93.30;;;;;;5079453;28;20043;-68
2022/05/21 04:29:45;;;;;;;9.82;6.20;;;11.60;94.40;;;;;;5059882;28;20029;-68
2022/05/21 04:32:11;;;;;;;7.82;5.85;;;11.70;95.40;;;;;;5062977;28;20039;-68
2022/05/21 04:34:37;;;;;;;10.45;5.63;;;11.70;96.50;;;;;;5060290;28;20037;-68
2022/05/21 04:37:03;;;;;;;11.35;5.85;;;11.70;96.60;;;;;;5060454;28;20036;-68
2022/05/21 04:39:31;;;;;;;7.63;5.75;;;11.60;96.70;;;;;;5066601;28;20487;-68
2022/05/21 04:42:03;;;;;;;10.38;6.00;;;11.60;96.50;;;;;;5069761;28;20083;-68
2022/05/21 04:44:31;;;;;;;7.63;5.40;;;11.50;97.30;;;;;;5068719;28;20128;-68
2022/05/21 04:46:58;;;;;;;9.07;5.43;;;11.60;97.40;;;;;;5062405;28;20021;-68
2022/05/21 04:49:24;;;;;;;8.60;5.03;;;11.50;97.20;;;;;;5069972;28;20025;-68
2022/05/21 04:51:50;;;;;;;8.30;5.70;;;11.40;97.20;;;;;;5074923;28;20040;-68
2022/05/21 04:54:16;;;;;;;9.90;4.90;;;11.40;96.90;;;;;;5070346;28;20029;-68
2022/05/21 04:56:41;;;;;;;8.77;5.32;;;11.40;96.80;;;;;;5060447;28;20155;-68
2022/05/21 04:59:11;;;;;;;8.93;6.03;;;11.40;97.20;;;;;;5059895;28;20138;-68
2022/05/21 05:01:38;;;;;;;9.23;4.88;;;11.40;97.30;;;;;;5060902;28;20112;-68
2022/05/21 05:04:05;;;;;;;8.30;4.90;;;11.40;97.20;;;;;;5060038;28;20141;-68
2022/05/21 05:06:31;;;;;;;7.43;5.43;;;11.40;96.80;;;;;;5059175;28;20326;-68
2022/05/21 05:08:56;;;;;;;9.27;5.63;;;11.40;96.80;;;;;;5059309;28;20025;-68
2022/05/21 05:11:23;;;;;;;9.07;5.85;;;11.50;97.30;;;;;;5061371;28;20033;-68
2022/05/21 05:13:49;;;;;;;8.73;5.20;;;11.60;97.30;;;;;;5066162;28;20039;-68
2022/05/21 05:16:15;;;;;;;7.85;5.53;;;11.60;97.00;;;;;;5065918;28;20038;-68
2022/05/21 05:18:41;;;;;;;7.28;5.65;;;11.70;97.20;;;;;;5061063;28;20032;-68
2022/05/21 05:21:07;;;;;;;9.70;5.25;;;11.80;97.90;;;;;;5061753;28;20036;-68
2022/05/21 05:23:38;;;;;;;9.65;5.70;;;11.90;98.00;;;;;;5056127;28;20053;-68
2022/05/21 05:26:03;;;;;;;7.53;5.28;;;12.00;98.00;;;;;;5056146;28;20075;-68
2022/05/21 05:28:29;;;;;;;7.82;4.90;;;12.10;98.00;;;;;;5060463;28;20806;-68
2022/05/21 05:30:55;;;;;;;6.72;4.93;;;12.10;98.00;;;;;;5052571;28;20395;-68
2022/05/21 05:33:24;;;;;;;8.13;5.20;;;12.20;98.00;;;;;;5057732;28;20031;-68
2022/05/21 05:35:52;;;;;;;7.10;4.90;;;12.30;98.00;;;;;;5058178;28;20422;-70
2022/05/21 05:38:25;;;;;;;8.10;5.28;;;12.40;98.00;;;;;;5057381;28;20357;-68
2022/05/21 05:40:55;;;;;;;8.10;5.30;;;12.50;98.00;;;;;;5056769;28;20025;-68
2022/05/21 05:43:21;;;;;;;6.97;5.00;;;12.50;98.00;;;;;;5057126;28;20029;-68
2022/05/21 05:45:58;;;;;;;8.88;4.53;;;12.60;98.00;;;;;;5056654;28;20021;-68
2022/05/21 05:48:26;;;;;;;8.80;4.93;;;12.70;98.00;;;;;;5054554;28;20021;-68
2022/05/21 05:50:51;;;;;;;7.00;5.05;;;12.90;98.00;;;;;;5052130;28;20103;-68
2022/05/21 05:53:17;;;;;;;8.05;4.50;;;13.00;98.00;;;;;;5038194;28;20489;-66
2022/05/21 05:55:47;;;;;;;8.05;4.50;;;13.00;98.00;;;;;;5043598;28;20057;-68
2022/05/21 06:00:57;;;;;;;;;;;13.10;98.00;;;;;;5054332;28;20036;-68
2022/05/21 06:03:23;;;;;;;7.65;4.18;;;13.30;98.00;;;;;;5036340;28;19925;-68
2022/05/21 06:05:53;;;;;;;7.10;4.45;;;13.30;98.00;;;;;;5037847;28;20076;-68
2022/05/21 06:08:22;;;;;;;8.23;4.70;;;13.10;98.00;;;;;;5032904;28;20025;-68
2022/05/21 06:10:51;;;;;;;11.30;4.80;;;13.00;98.00;;;;;;5034326;28;20033;-68
2022/05/21 06:13:20;;;;;;;8.55;4.55;;;12.90;98.00;;;;;;5034814;28;20041;-68
2022/05/21 06:15:46;;;;;;;6.85;4.28;;;13.10;98.00;;;;;;5034507;28;20114;-68
2022/05/21 06:18:20;;;;;;;7.22;4.75;;;13.30;98.00;;;;;;5034423;28;20033;-69
2022/05/21 06:20:50;;;;;;;7.43;5.15;;;13.40;98.00;;;;;;5031600;28;20037;-69
2022/05/21 06:23:16;;;;;;;6.20;4.18;;;13.50;98.00;;;;;;5032043;28;20025;-68
2022/05/21 06:25:42;;;;;;;6.80;4.50;;;13.50;97.50;;;;;;5035400;28;20110;-69
2022/05/21 06:28:10;;;;;;;6.07;4.65;;;13.60;97.70;;;;;;5033603;28;21551;-68
2022/05/21 06:30:38;;;;;;;6.63;4.55;;;13.70;97.50;;;;;;5030507;28;20041;-68
2022/05/21 06:33:12;;;;;;;7.53;4.72;;;13.80;97.50;;;;;;5031481;28;20120;-68
2022/05/21 06:35:51;;;;;;;10.68;4.60;;;13.80;97.20;;;;;;5033785;28;20037;-68
2022/05/21 06:38:17;;;;;;;8.15;4.10;;;13.90;97.00;;;;;;5031148;28;20029;-67
2022/05/21 06:40:43;;;;;;;6.93;4.10;;;13.90;97.00;;;;;;5034548;28;20405;-68
2022/05/21 06:43:12;;;;;;;6.57;4.35;;;14.00;97.00;;;;;;5030916;28;20623;-68
2022/05/21 06:45:38;;;;;;;6.18;4.00;;;14.20;96.90;;;;;;5032143;28;21657;-68
2022/05/21 06:48:06;;;;;;;6.20;3.88;;;14.50;96.50;;;;;;5049507;28;20025;-68
2022/05/21 06:50:38;;;;;;;6.40;4.00;;;14.80;95.70;;;;;;5035685;28;20487;-69
2022/05/21 06:53:06;;;;;;;6.22;3.80;;;14.80;95.00;;;;;;5035554;28;20035;-68
2022/05/21 06:55:34;;;;;;;6.78;4.28;;;14.80;95.00;;;;;;5036224;28;20043;-68
2022/05/21 06:58:00;;;;;;;7.43;4.10;;;14.60;94.40;;;;;;5033832;28;20056;-68
2022/05/21 07:00:28;;;;;;;5.65;3.78;;;14.40;94.50;;;;;;5032169;28;20107;-68
2022/05/21 07:02:54;;;;;;;12.68;4.40;;;14.40;95.10;;;;;;5034945;28;20155;-68
2022/05/21 07:08:16;;;;;;;6.28;3.25;;;14.60;94.60;;;;;;5050609;28;20036;-68
2022/05/21 07:10:41;;;;;;;6.65;2.90;;;14.80;92.20;;;;;;5036932;28;20056;-68
2022/05/21 07:13:07;;;;;;;7.45;3.45;;;14.90;92.30;;;;;;5051948;28;20475;-68
2022/05/21 07:15:39;;;;;;;8.38;3.17;;;14.90;92.10;;;;;;5056592;28;20402;-68
2022/05/21 07:18:04;;;;;;;5.57;3.08;;;15.00;91.40;;;;;;5056318;28;20036;-68
2022/05/21 07:20:36;;;;;;;7.68;3.50;;;14.80;91.00;;;;;;5056232;28;20025;-68
2022/05/21 07:23:01;;;;;;;7.10;3.25;;;14.80;91.70;;;;;;5055224;28;20025;-68
2022/05/21 07:25:30;;;;;;;6.70;3.53;;;14.90;91.60;;;;;;5043608;28;20070;-68
2022/05/21 07:27:56;;;;;;;5.55;2.65;;;15.20;90.80;;;;;;5015198;28;20582;-68
2022/05/21 07:30:24;;;;;;;5.18;2.30;;;15.80;89.70;;;;;;5031629;28;20077;-68
2022/05/21 07:32:55;;;;;;;5.65;2.00;;;16.60;87.20;;;;;;5032074;28;20155;-68
2022/05/21 07:35:23;;;;;;;4.97;1.80;;;17.60;83.60;;;;;;5031802;28;20096;-68
2022/05/21 07:37:48;;;;;;;5.22;1.95;;;18.30;82.50;;;;;;5034379;28;20025;-68
2022/05/21 07:40:16;;;;;;;3.25;1.70;;;18.90;79.20;;;;;;5032380;28;20029;-68
2022/05/21 07:42:42;;;;;;;4.43;1.92;;;19.00;78.10;;;;;;5030275;28;20144;-68
2022/05/21 07:45:11;;;;;;;4.28;2.13;;;19.40;78.10;;;;;;5034171;28;20029;-68
2022/05/21 07:47:37;;;;;;;5.43;2.28;;;19.80;77.60;;;;;;5038327;28;20100;-68
2022/05/21 07:50:05;;;;;;;3.88;2.03;;;19.90;76.10;;;;;;5045016;28;20104;-68
2022/05/21 07:52:34;;;;;;;4.85;2.08;;;19.70;77.50;;;;;;5051003;28;20025;-68
2022/05/21 07:55:00;;;;;;;6.75;2.00;;;19.90;77.30;;;;;;5036250;28;20043;-68
2022/05/21 07:57:26;;;;;;;3.20;1.35;;;20.50;75.10;;;;;;5036833;28;20029;-69
2022/05/21 07:59:51;;;;;;;2.75;1.25;;;20.80;74.40;;;;;;5033523;28;20326;-69
2022/05/21 08:02:19;;;;;;;4.05;1.60;;;20.80;72.80;;;;;;5036104;28;20106;-68
2022/05/21 08:04:48;;;;;;;2.67;1.20;;;20.50;72.40;;;;;;5034096;28;20044;-68
2022/05/21 08:07:15;;;;;;;3.75;1.58;;;19.90;74.20;;;;;;5029309;28;20029;-68
2022/05/21 08:09:44;;;;;;;3.15;1.20;;;19.90;73.50;;;;;;5030763;28;21688;-69
2022/05/21 08:12:14;;;;;;;5.63;1.58;;;20.50;72.60;;;;;;5032728;28;20445;-69
2022/05/21 08:14:42;;;;;;;5.50;2.45;;;21.00;71.50;;;;;;5032977;28;20033;-68
2022/05/21 08:17:09;;;;;;;3.00;1.50;;;21.00;70.40;;;;;;5033443;28;20029;-68
2022/05/21 08:19:36;;;;;;;4.50;2.55;;;20.90;71.00;;;;;;5038781;28;20055;-68
2022/05/21 08:27:30;;;;;;;;;;;21.80;70.50;;;;;;5054886;28;20036;-68
2022/05/21 08:29:56;;;;;;;2.75;1.10;;;22.20;67.90;;;;;;5055716;28;19927;-69
2022/05/21 08:32:21;;;;;;;2.25;1.20;;;22.90;66.50;;;;;;5053845;28;20399;-68
2022/05/21 08:34:47;;;;;;;3.35;1.50;;;23.10;65.90;;;;;;5036105;28;20036;-69
2022/05/21 08:37:13;;;;;;;5.10;1.50;;;22.80;67.70;;;;;;5052886;28;20029;-69
2022/05/21 08:39:38;;;;;;;3.85;1.55;;;22.60;67.70;;;;;;5055357;28;20109;-68
2022/05/21 08:42:15;;;;;;;3.00;1.38;;;22.30;68.50;;;;;;5054648;28;20017;-68
2022/05/21 08:44:50;;;;;;;3.25;1.35;;;22.70;69.00;;;;;;5055222;28;20044;-68
2022/05/21 08:47:32;;;;;;;4.05;1.55;;;22.50;68.30;;;;;;5054279;28;20030;-69
2022/05/21 08:50:14;;;;;;;3.47;1.00;;;23.60;66.70;;;;;;5054396;28;20025;-69
2022/05/21 08:52:54;;;;;;;3.08;1.10;;;23.40;65.40;;;;;;5053449;28;20033;-69
2022/05/21 08:55:26;;;;;;;2.47;0.82;;;23.30;63.80;;;;;;5055156;28;20040;-68
2022/05/21 08:57:59;;;;;;;2.40;0.88;;;23.30;63.00;;;;;;5052655;28;20033;-68
2022/05/21 09:00:38;;;;;;;2.75;1.20;;;23.40;61.60;;;;;;5055462;28;20048;-68
2022/05/21 09:03:09;;;;;;;3.50;1.00;;;23.70;61.90;;;;;;5053284;28;20033;-67
2022/05/21 09:05:37;;;;;;;4.38;0.98;;;24.30;61.10;;;;;;5047814;28;20036;-68
2022/05/21 09:08:21;;;;;;;2.47;0.80;;;23.70;62.20;;;;;;5055670;28;20357;-68
2022/05/21 09:11:01;;;;;;;2.40;0.80;;;24.20;62.90;;;;;;5058248;28;20063;-67
2022/05/21 09:13:52;;;;;;;1.63;0.80;;;24.00;60.60;;;;;;5057019;28;20106;-68
2022/05/21 09:19:05;;;;;;;3.20;1.00;;;24.20;61.70;;;;;;5058000;28;20040;-68
2022/05/21 09:21:33;;;;;;;4.10;0.90;;;24.20;60.90;;;;;;5057696;28;20029;-68
2022/05/21 09:24:08;;;;;;;1.83;0.80;;;24.20;62.00;;;;;;5058412;28;20025;-68
2022/05/21 09:26:50;;;;;;;2.15;0.88;;;24.10;61.60;;;;;;5057883;28;20021;-68
2022/05/21 09:29:28;;;;;;;2.28;0.90;;;25.00;60.80;;;;;;5058804;28;20033;-68
2022/05/21 09:31:58;;;;;;;3.45;1.23;;;25.40;59.30;;;;;;5058634;28;20029;-67
2022/05/21 09:34:31;;;;;;;2.22;1.00;;;25.40;60.40;;;;;;5058436;28;20033;-68
2022/05/21 09:36:59;;;;;;;2.10;0.95;;;25.20;60.40;;;;;;5056911;28;20152;-67
2022/05/21 09:39:38;;;;;;;1.10;0.73;;;24.90;59.80;;;;;;5058124;28;20041;-67
2022/05/21 09:45:26;;;;;;;1.77;0.98;;;24.80;58.90;;;;;;5057861;28;20082;-69
2022/05/21 09:48:14;;;;;;;3.13;0.80;;;24.90;57.20;;;;;;5038500;28;20311;-68
2022/05/21 09:50:58;;;;;;;1.98;0.73;;;25.20;58.00;;;;;;5038502;28;20041;-68
2022/05/21 09:53:33;;;;;;;2.22;0.95;;;24.20;59.80;;;;;;5037184;28;20026;-68
2022/05/21 09:56:05;;;;;;;2.10;1.10;;;24.10;60.10;;;;;;5045415;28;20029;-69
2022/05/21 09:58:37;;;;;;;2.15;0.77;;;24.00;60.00;;;;;;5057328;28;20322;-68
2022/05/21 10:01:05;;;;;;;15.35;2.03;;;24.40;59.70;;;;;;5058158;28;20359;-68
2022/05/21 10:03:51;;;;;;;1.77;0.90;;;24.50;61.60;;;;;;5058006;28;20365;-68
2022/05/21 10:06:37;;;;;;;3.28;1.00;;;24.70;59.10;;;;;;5056816;28;20039;-67
2022/05/21 10:12:32;;;;;;;2.38;1.00;;;25.60;57.50;;;;;;5054612;28;20457;-68
2022/05/21 10:15:05;;;;;;;2.53;0.88;;;25.80;57.20;;;;;;5058082;28;20029;-68
2022/05/21 10:18:07;;;;;;;2.50;0.90;;;25.20;57.40;;;;;;5056137;28;20037;-68
2022/05/21 10:20:39;;;;;;;1.65;0.82;;;24.80;58.60;;;;;;5001964;28;20055;-68
2022/05/21 10:23:28;;;;;;;3.33;0.82;;;25.10;58.20;;;;;;5056571;28;20096;-68
2022/05/21 10:26:12;;;;;;;1.58;0.90;;;25.30;58.50;;;;;;5025503;28;20399;-68
2022/05/21 10:29:03;;;;;;;2.30;0.90;;;25.30;58.50;;;;;;5057787;28;20287;-68
2022/05/21 10:31:41;;;;;;;2.53;1.00;;;24.80;59.00;;;;;;5056841;28;20028;-68
2022/05/21 10:34:48;;;;;;;2.75;0.93;;;24.60;58.80;;;;;;5046311;28;20029;-68
2022/05/21 10:37:24;;;;;;;3.35;0.80;;;24.70;58.40;;;;;;5055105;28;20028;-68
2022/05/21 10:39:59;;;;;;;5.03;2.40;;;24.20;59.60;;;;;;5056402;28;20024;-68
2022/05/21 10:43:20;;;;;;;2.35;0.90;;;24.20;57.80;;;;;;5054575;28;20028;-67
2022/05/21 10:46:04;;;;;;;4.20;0.90;;;24.40;59.00;;;;;;5028270;28;20051;-68
2022/05/21 10:48:48;;;;;;;1.92;0.70;;;24.20;58.60;;;;;;5056267;28;20029;-68
2022/05/21 10:51:36;;;;;;;2.53;0.82;;;24.10;61.80;;;;;;5055417;28;20037;-68
2022/05/21 10:54:20;;;;;;;1.95;0.85;;;24.00;58.70;;;;;;5056485;28;20033;-68
2022/05/21 10:57:04;;;;;;;2.50;0.80;;;23.80;59.90;;;;;;5038788;28;20037;-68
2022/05/21 10:59:38;;;;;;;2.47;1.00;;;24.10;60.90;;;;;;5056660;28;20087;-68
2022/05/21 11:02:22;;;;;;;2.97;1.05;;;24.40;59.30;;;;;;5055099;28;20032;-68
2022/05/21 11:05:20;;;;;;;2.17;0.77;;;24.70;58.60;;;;;;5045682;28;20377;-68
2022/05/21 11:07:55;;;;;;;1.90;0.70;;;25.10;57.60;;;;;;5041303;28;20087;-69
2022/05/21 11:10:44;;;;;;;1.75;0.70;;;24.60;57.50;;;;;;5055458;28;20430;-68
2022/05/21 11:13:17;;;;;;;3.10;1.02;;;24.70;58.00;;;;;;5056472;28;20021;-68
2022/05/21 11:15:53;;;;;;;3.03;0.63;;;24.40;57.40;;;;;;5055724;28;20020;-68
2022/05/21 11:18:39;;;;;;;4.75;0.82;;;24.30;59.30;;;;;;5055707;28;20326;-68
2022/05/21 11:21:12;;;;;;;3.67;0.80;;;24.70;57.70;;;;;;5051406;28;20028;-68
2022/05/21 11:23:57;;;;;;;2.53;0.90;;;24.60;57.00;;;;;;5053272;28;20298;-68
2022/05/21 11:26:33;;;;;;;2.40;0.70;;;24.30;58.40;;;;;;5055963;28;20025;-68
2022/05/21 11:29:32;;;;;;;0.98;0.60;;;24.60;57.70;;;;;;5055192;28;20021;-69
2022/05/21 11:37:42;;;;;;;2.40;0.70;;;24.40;59.00;;;;;;5053241;28;20075;-68
2022/05/21 11:40:09;;;;;;;1.50;0.65;;;24.40;57.20;;;;;;5054575;28;20017;-69
2022/05/21 11:42:36;;;;;;;2.17;0.90;;;24.10;55.00;;;;;;5055714;28;20033;-69
2022/05/21 11:45:08;;;;;;;1.67;0.80;;;24.00;55.50;;;;;;5054867;28;20025;-68
2022/05/21 11:47:37;;;;;;;1.83;0.70;;;24.20;57.40;;;;;;5056006;28;20064;-69
2022/05/21 11:50:07;;;;;;;0.98;0.50;;;24.50;55.90;;;;;;5036484;28;20053;-68
2022/05/21 11:52:35;;;;;;;1.15;0.52;;;24.50;55.10;;;;;;5035095;28;20025;-68
2022/05/21 11:55:14;;;;;;;1.45;0.60;;;24.30;54.50;;;;;;5054327;28;20056;-68
2022/05/21 11:57:59;;;;;;;1.20;0.57;;;24.20;55.20;;;;;;5037226;28;20033;-68
2022/05/21 12:00:24;;;;;;;0.93;0.50;;;24.20;54.80;;;;;;5051768;28;20100;-67
2022/05/21 12:02:53;;;;;;;2.03;0.80;;;24.20;54.80;;;;;;5052843;28;20145;-68
2022/05/21 12:05:37;;;;;;;1.17;0.60;;;23.90;54.70;;;;;;5053201;28;20330;-68
2022/05/21 12:08:33;;;;;;;1.00;0.60;;;23.90;55.60;;;;;;5052154;28;20113;-67
2022/05/21 12:11:20;;;;;;;2.20;0.60;;;24.30;54.80;;;;;;5053188;28;20033;-68
2022/05/21 12:14:01;;;;;;;2.17;0.60;;;24.20;55.50;;;;;;5053280;28;20470;-68
2022/05/21 12:16:42;;;;;;;1.13;0.50;;;23.90;55.60;;;;;;5053840;28;20060;-68
2022/05/21 12:19:09;;;;;;;1.48;0.70;;;24.20;57.70;;;;;;5053407;28;20047;-68
2022/05/21 12:21:39;;;;;;;2.05;0.60;;;24.30;55.10;;;;;;5051618;28;20041;-68
2022/05/21 12:24:27;;;;;;;0.90;0.60;;;24.10;53.80;;;;;;5053434;28;20056;-68
2022/05/21 12:27:28;;;;;;;0.80;0.50;;;24.00;55.10;;;;;;5054006;28;20021;-67
2022/05/21 12:30:00;;;;;;;2.83;0.70;;;23.70;53.50;;;;;;5041978;28;20045;-67
2022/05/21 12:32:29;;;;;;;1.70;0.65;;;23.80;56.00;;;;;;5032605;28;20108;-67
2022/05/21 12:35:13;;;;;;;3.30;0.88;;;24.20;55.60;;;;;;5052331;28;20043;-67
2022/05/21 12:37:42;;;;;;;1.13;0.50;;;24.70;54.30;;;;;;5052345;28;20029;-69
2022/05/21 12:40:48;;;;;;;3.67;0.80;;;24.70;54.50;;;;;;5054582;28;20143;-69
2022/05/21 12:43:15;;;;;;;1.42;0.50;;;24.60;55.10;;;;;;5041025;28;20040;-68
2022/05/21 12:45:47;;;;;;;2.45;0.60;;;25.20;54.00;;;;;;5056378;28;20025;-68
2022/05/21 12:48:22;;;;;;;1.70;0.43;;;25.10;53.40;;;;;;5054332;28;20051;-68
2022/05/21 12:50:49;;;;;;;2.17;0.50;;;25.10;52.50;;;;;;5056682;28;20025;-68
2022/05/21 12:53:26;;;;;;;1.73;0.60;;;25.10;52.20;;;;;;5037318;28;20025;-68
2022/05/21 12:56:17;;;;;;;1.25;0.70;;;25.30;55.10;;;;;;5056070;28;20084;-68
2022/05/21 12:58:43;;;;;;;0.93;0.50;;;25.50;56.00;;;;;;5057180;28;20025;-68
2022/05/21 13:01:21;;;;;;;1.25;0.70;;;25.80;54.80;;;;;;5056575;28;20440;-69
2022/05/21 13:03:46;;;;;;;1.67;0.60;;;26.50;53.20;;;;;;5055872;28;20048;-69
2022/05/21 13:06:16;;;;;;;0.40;0.40;;;26.70;52.30;;;;;;5057019;28;20029;-69
2022/05/21 13:08:42;;;;;;;1.48;0.60;;;25.80;50.10;;;;;;5053170;28;20017;-68
2022/05/21 13:11:20;;;;;;;1.95;0.60;;;25.40;51.50;;;;;;5055567;28;20025;-68
2022/05/21 13:14:03;;;;;;;0.63;0.40;;;25.60;52.70;;;;;;5055330;28;20029;-68
2022/05/21 13:16:32;;;;;;;2.83;0.60;;;25.90;50.90;;;;;;5055537;28;20052;-68
2022/05/21 13:19:31;;;;;;;2.00;0.45;;;26.50;51.80;;;;;;5058631;28;20476;-68
2022/05/21 13:22:12;;;;;;;0.40;0.32;;;26.50;51.90;;;;;;5056422;28;20413;-68
2022/05/21 13:24:45;;;;;;;2.20;0.45;;;26.50;51.20;;;;;;5057769;28;20092;-68
2022/05/21 13:27:17;;;;;;;1.88;0.60;;;26.70;53.10;;;;;;5058542;28;20029;-68
2022/05/21 13:29:45;;;;;;;1.83;0.50;;;27.00;51.40;;;;;;5024218;28;20283;-67
2022/05/21 13:32:22;;;;;;;2.90;0.70;;;27.10;51.40;;;;;;5054483;28;20314;-68
2022/05/21 13:34:49;;;;;;;2.05;0.63;;;27.30;50.90;;;;;;5053330;28;20039;-67
2022/05/21 13:37:16;;;;;;;1.52;0.55;;;27.20;50.70;;;;;;5057025;28;20036;-68
2022/05/21 13:39:54;;;;;;;1.95;0.47;;;26.80;48.80;;;;;;5057102;28;20084;-67
2022/05/21 13:42:26;;;;;;;1.67;0.60;;;26.60;50.00;;;;;;5052223;28;20029;-67